Kejimkujik, Nova Scotia

11:31 AM ADT on September 04, 2015 (GMT -0300)
Greenwood | | Change Station
CLOSE
Current Station
Airport
Location: Greenwood,
Elevation: 92 ft
Nearby Weather Stations

Elev 92 ft 44.98 °N, 64.91 °W | Updated 31 minutes ago

Scattered Clouds
Scattered Clouds
64 °F
Feels Like 64 °F
N
6
Wind Variable Wind from NNE

Today is forecast to be nearly the same temperature as yesterday.

Today
High -- | Low -- °F
--% Chance of Precip.
Yesterday
High -- | Low -- °F
Precip. -- in
6:46 AM 7:52 PM
Waning Gibbous, 59% visible
Pressure 30.18 in
Visibility 15.0 miles
Clouds Scattered Clouds 3000 ft
Dew Point 52 °F
Humidity 64%
Rainfall 0.00 in
Snow Depth Not available.
UV 4 out of 12
Pollen Not available.
Air Quality Not available.
Flu Activity Not available.
METAR CYZX 041400Z 02005KT 15SM SCT030 18/11 A3018 RMK CU3 WNDY HILL 06008KT SLP220
Pressure 30.18 in
Visibility 15.0 miles
Clouds Scattered Clouds 3000 ft
Dew Point 52 °F
Humidity 64%
Rainfall 0.00 in
Snow Depth Not available.
UV 4 out of 12
Pollen Not available.
Air Quality Not available.
Flu Activity Not available.
METAR CYZX 041400Z 02005KT 15SM SCT030 18/11 A3018 RMK CU3 WNDY HILL 06008KT SLP220

10-Day Weather Forecast

×

Almanac

Astronomy

Sep. 04, 2015 Rise Set
Actual Time
Civil Twilight
Nautical Twilight
Astronomical Twilight
Moon
Length of Visible Light
Length of Day
Tomorrow will be .
, % of the Moon is Illuminated

Today's Extremes

Country Highs Country Lows

Community

WunderPhotos

Upload Photos

1,852,186 photos uploaded!

WunderBlogs® & News

Nearby

Air Quality

  Air Quality AQ Index Pollutant
Not available.

Snow Depth

Station Depth Elevation

Earthquake Activity

City Distance Mag. Time & Date
Minimum magnitude displayed is 2.5.

Coastal Water Temperatures

Place Temperature

Stations

Nearby Weather Stations

Station Location Temp. Windchill Dew Point Humidity Wind Precip. Elev Updated Type